Time;durP1;ratioP1;P1;durP2;ratioP2;P2;SDS_P1;SDS_P2;PMS_P1;PMS_P2;Temp;Humidity;BMP_temperature;BMP_pressure;BME280_temperature;BME280_humidity;BME280_pressure;Samples;Min_cycle;Max_cycle;Signal;HPM_P1;HPM_P2
2023/04/08 00:01:15;;;;;;;20.50;15.90;;;;;;;4.79;72.93;100625.65;103407;1256;107379;-70
2023/04/08 00:03:42;;;;;;;21.50;16.40;;;;;;;4.79;73.13;100625.14;103240;1256;138511;-70
2023/04/08 00:06:21;;;;;;;24.40;17.40;;;;;;;4.79;72.90;100627.89;104097;1256;111717;-70
2023/04/08 00:08:50;;;;;;;22.50;17.70;;;;;;;4.79;72.95;100630.83;103102;1257;138687;-70
2023/04/08 00:11:23;;;;;;;25.10;18.50;;;;;;;4.78;72.55;100629.96;103495;1256;97792;-69
2023/04/08 00:14:00;;;;;;;20.30;16.30;;;;;;;4.77;72.74;100633.24;103213;1258;108089;-70
2023/04/08 00:16:27;;;;;;;22.80;16.40;;;;;;;4.78;72.88;100631.17;103552;1259;138909;-70
2023/04/08 00:18:55;;;;;;;22.40;16.70;;;;;;;4.77;72.81;100638.41;103791;1256;111864;-70
2023/04/08 00:21:22;;;;;;;20.90;15.90;;;;;;;4.77;72.90;100639.10;103105;1256;138544;-69
2023/04/08 00:23:50;;;;;;;20.30;15.90;;;;;;;4.78;72.70;100640.64;103417;1260;97699;-70
2023/04/08 00:26:17;;;;;;;19.30;14.90;;;;;;;4.79;72.81;100642.02;104069;1256;106720;-71
2023/04/08 00:28:45;;;;;;;17.40;14.10;;;;;;;4.77;72.79;100642.38;103069;1256;138558;-70
2023/04/08 00:31:13;;;;;;;20.00;14.90;;;;;;;4.77;72.79;100643.75;103186;1256;111514;-70
2023/04/08 00:33:40;;;;;;;17.50;13.90;;;;;;;4.79;73.10;100642.71;103669;1254;138596;-69
2023/04/08 00:36:10;;;;;;;18.50;14.00;;;;;;;4.78;72.90;100640.13;103328;1258;97958;-69
2023/04/08 00:38:57;;;;;;;15.80;12.70;;;;;;;4.77;72.95;100640.14;103337;1254;138500;-71
2023/04/08 00:41:27;;;;;;;17.00;13.40;;;;;;;4.76;72.86;100637.05;103335;1256;97764;-69
2023/04/08 00:43:55;;;;;;;16.20;13.00;;;;;;;4.76;72.98;100637.90;104511;1257;111290;-69
2023/04/08 00:46:43;;;;;;;15.80;13.20;;;;;;;4.76;73.15;100643.41;103772;1258;138687;-70
2023/04/08 00:49:14;;;;;;;18.30;13.40;;;;;;;4.76;72.85;100645.13;103323;1260;100410;-69
2023/04/08 00:51:51;;;;;;;14.60;12.10;;;;;;;4.76;73.02;100653.06;103573;1258;138492;-69
2023/04/08 00:54:27;;;;;;;16.50;12.80;;;;;;;4.75;72.96;100649.96;103210;1261;97946;-69
2023/04/08 00:56:58;;;;;;;14.50;11.80;;;;;;;4.74;72.80;100653.06;103853;1258;138855;-69
2023/04/08 00:59:37;;;;;;;18.30;13.30;;;;;;;4.73;72.83;100649.28;103174;1260;108649;-69
2023/04/08 01:02:33;;;;;;;14.80;12.80;;;;;;;4.74;72.75;100648.42;103266;1260;98313;-68
2023/04/08 01:05:06;;;;;;;16.80;13.80;;;;;;;4.74;72.91;100656.00;103978;1256;106753;-69
2023/04/08 01:07:47;;;;;;;17.10;12.90;;;;;;;4.74;73.10;100655.99;104522;1256;95785;-69
2023/04/08 01:10:21;;;;;;;15.70;12.40;;;;;;;4.74;72.85;100663.06;103183;1258;138584;-69
2023/04/08 01:13:09;;;;;;;15.20;12.10;;;;;;;4.74;72.68;100657.89;102773;1260;1002519;-69
2023/04/08 01:15:50;;;;;;;16.00;12.90;;;;;;;4.72;72.68;100661.17;103176;1260;138815;-69
2023/04/08 01:18:29;;;;;;;16.10;12.50;;;;;;;4.69;72.41;100666.18;103517;1257;108610;-69
2023/04/08 01:21:01;;;;;;;15.90;13.30;;;;;;;4.67;72.55;100669.09;103428;1259;139049;-69
2023/04/08 01:23:42;;;;;;;14.80;12.60;;;;;;;4.65;72.53;100668.05;103233;1262;113123;-69
2023/04/08 01:26:10;;;;;;;15.70;12.90;;;;;;;4.65;72.67;100661.68;103775;1257;106355;-69
2023/04/08 01:28:42;;;;;;;15.10;12.30;;;;;;;4.63;72.72;100668.75;104044;1256;138602;-69
2023/04/08 01:31:13;;;;;;;15.90;12.70;;;;;;;4.61;72.74;100671.85;103836;1260;107722;-69
2023/04/08 01:33:41;;;;;;;16.60;13.70;;;;;;;4.58;72.81;100685.64;103738;1254;138587;-69
2023/04/08 01:36:12;;;;;;;17.10;13.30;;;;;;;4.52;72.84;100677.21;103308;1259;112003;-69
2023/04/08 01:39:04;;;;;;;17.50;13.60;;;;;;;4.47;72.99;100673.06;103295;1264;139571;-69
2023/04/08 01:42:38;;;;;;;17.00;13.40;;;;;;;4.43;73.09;100675.14;103152;1262;96938;-69
2023/04/08 01:45:12;;;;;;;19.40;14.70;;;;;;;4.39;73.04;100676.88;102867;1266;138528;-69
2023/04/08 01:47:43;;;;;;;17.30;13.90;;;;;;;4.36;73.22;100674.46;103821;1266;96677;-69
2023/04/08 01:50:15;;;;;;;19.10;13.90;;;;;;;4.34;73.28;100675.50;103155;1264;111297;-68
2023/04/08 01:52:54;;;;;;;17.80;13.50;;;;;;;4.32;73.36;100678.41;103053;1274;138473;-69
2023/04/08 01:55:27;;;;;;;17.70;13.50;;;;;;;4.30;73.39;100674.96;102847;1274;97792;-69
2023/04/08 01:58:01;;;;;;;17.70;14.10;;;;;;;4.28;73.30;100673.75;103144;1265;138533;-68
2023/04/08 02:00:44;;;;;;;18.70;14.30;;;;;;;4.25;73.38;100675.83;102819;1263;97893;-69
2023/04/08 02:03:14;;;;;;;19.70;14.20;;;;;;;4.22;73.42;100676.68;103057;1263;138523;-68
2023/04/08 02:05:45;;;;;;;17.90;14.10;;;;;;;4.21;73.45;100687.19;102974;1266;107110;-68
2023/04/08 02:08:13;;;;;;;18.50;14.30;;;;;;;4.21;73.43;100696.14;102767;1266;97824;-67
2023/04/08 02:10:42;;;;;;;19.80;15.00;;;;;;;4.18;73.46;100696.31;102653;1267;138376;-68
2023/04/08 02:13:09;;;;;;;21.00;15.50;;;;;;;4.14;73.61;100694.24;102718;1262;98264;-69
2023/04/08 02:15:43;;;;;;;19.60;14.40;;;;;;;4.14;73.59;100694.95;103259;1266;138438;-69
2023/04/08 02:18:16;;;;;;;19.90;15.30;;;;;;;4.12;73.92;100695.95;103141;1262;109269;-69
2023/04/08 02:20:50;;;;;;;19.70;15.20;;;;;;;4.10;73.87;100699.38;103519;1260;141093;-69
2023/04/08 02:23:25;;;;;;;21.20;15.60;;;;;;;4.07;73.95;100700.94;103181;1260;106914;-69
2023/04/08 02:25:57;;;;;;;20.00;15.90;;;;;;;4.05;73.99;100703.86;103130;1258;97817;-67
2023/04/08 02:28:28;;;;;;;21.80;16.30;;;;;;;4.03;73.94;100703.00;104421;1256;138339;-68
2023/04/08 02:30:57;;;;;;;20.50;16.50;;;;;;;4.01;73.96;100701.11;103313;1258;106456;-69
2023/04/08 02:33:28;;;;;;;22.20;16.90;;;;;;;4.00;73.94;100701.96;103100;1260;138953;-68
2023/04/08 02:35:59;;;;;;;20.20;15.40;;;;;;;3.99;74.03;100706.27;103129;1260;107133;-68
2023/04/08 02:38:50;;;;;;;20.40;16.10;;;;;;;3.97;74.03;100712.46;104001;1256;138616;-69
2023/04/08 02:41:18;;;;;;;21.90;16.80;;;;;;;3.94;73.89;100706.24;104513;1258;110672;-69
2023/04/08 02:43:48;;;;;;;21.20;16.30;;;;;;;3.92;74.02;100709.84;104501;1255;108276;-69
2023/04/08 02:46:15;;;;;;;19.80;16.00;;;;;;;3.90;73.81;100714.48;104397;1256;138444;-70
2023/04/08 02:48:42;;;;;;;21.20;16.50;;;;;;;3.87;73.96;100713.63;104548;1255;107666;-69
2023/04/08 02:51:13;;;;;;;19.90;16.00;;;;;;;3.87;74.04;100714.66;103344;1257;138701;-69
2023/04/08 02:53:40;;;;;;;20.40;15.50;;;;;;;3.86;74.14;100719.48;103672;1260;109944;-69
2023/04/08 02:56:17;;;;;;;20.50;16.40;;;;;;;3.86;74.06;100723.60;103261;1260;107688;-68
2023/04/08 02:58:44;;;;;;;22.20;17.20;;;;;;;3.84;73.98;100727.91;103148;1256;138555;-69
2023/04/08 03:01:12;;;;;;;22.30;17.10;;;;;;;3.84;74.00;100731.69;103632;1257;107862;-68
2023/04/08 03:03:39;;;;;;;20.60;16.50;;;;;;;3.82;74.21;100732.89;103096;1258;138554;-68
2023/04/08 03:06:06;;;;;;;22.00;16.30;;;;;;;3.79;73.99;100733.23;103231;1257;111099;-69
2023/04/08 03:08:39;;;;;;;22.10;16.80;;;;;;;3.77;74.22;100741.11;103090;1260;138715;-68
2023/04/08 03:11:09;;;;;;;21.90;16.80;;;;;;;3.75;74.29;100745.06;103172;1260;98429;-68
2023/04/08 03:13:36;;;;;;;21.40;16.50;;;;;;;3.72;74.26;100746.95;103307;1260;108086;-68
2023/04/08 03:16:07;;;;;;;22.20;16.30;;;;;;;3.70;74.34;100754.50;103138;1260;138593;-68
2023/04/08 03:18:45;;;;;;;20.40;15.80;;;;;;;3.65;74.49;100752.61;103706;1260;111253;-68
2023/04/08 03:21:25;;;;;;;23.10;16.70;;;;;;;3.61;74.38;100754.66;103139;1260;138769;-68
2023/04/08 03:24:12;;;;;;;22.30;16.20;;;;;;;3.57;74.60;100755.98;103210;1257;97804;-68
2023/04/08 03:26:42;;;;;;;21.60;16.20;;;;;;;3.51;74.62;100757.35;103327;1260;138654;-68
2023/04/08 03:29:10;;;;;;;22.20;16.40;;;;;;;3.47;74.53;100758.04;103236;1258;97790;-68
2023/04/08 03:31:40;;;;;;;22.90;16.20;;;;;;;3.44;74.76;100763.17;103182;1259;110598;-68
2023/04/08 03:34:10;;;;;;;26.20;16.70;;;;;;;3.41;75.03;100765.03;103130;1256;138491;-68
2023/04/08 03:36:41;;;;;;;24.20;16.40;;;;;;;3.38;75.09;100766.56;103258;1260;97816;-68
2023/04/08 03:39:09;;;;;;;22.70;17.00;;;;;;;3.34;75.12;100765.52;103084;1257;138525;-68
2023/04/08 03:41:36;;;;;;;23.30;16.30;;;;;;;3.32;75.34;100770.66;103508;1254;97891;-68
2023/04/08 03:44:06;;;;;;;24.10;16.30;;;;;;;3.29;75.42;100770.14;103295;1258;112099;-68
2023/04/08 03:46:36;;;;;;;20.90;15.80;;;;;;;3.25;75.59;100769.95;103110;1257;138692;-69
2023/04/08 03:49:06;;;;;;;24.70;16.00;;;;;;;3.22;75.67;100771.27;103283;1257;98336;-68
2023/04/08 03:51:33;;;;;;;21.70;15.90;;;;;;;3.18;75.74;100772.81;103196;1257;138342;-68
2023/04/08 03:54:10;;;;;;;22.90;16.20;;;;;;;3.15;75.87;100775.02;103269;1257;97820;-68
2023/04/08 03:56:40;;;;;;;21.30;15.30;;;;;;;3.13;75.84;100777.76;103202;1257;138566;-68
2023/04/08 03:59:12;;;;;;;22.60;15.80;;;;;;;3.12;75.95;100777.58;103259;1260;107925;-68
2023/04/08 04:01:59;;;;;;;20.30;15.40;;;;;;;3.09;76.15;100775.69;103257;1260;98305;-68
2023/04/08 04:04:47;;;;;;;22.30;15.80;;;;;;;3.09;76.33;100782.89;102687;1263;138388;-68
2023/04/08 04:07:19;;;;;;;20.90;15.40;;;;;;;3.09;76.26;100780.48;102753;1264;97891;-68
2023/04/08 04:09:55;;;;;;;20.20;14.80;;;;;;;3.07;76.24;100783.73;102953;1266;138387;-68
2023/04/08 04:12:35;;;;;;;23.50;16.80;;;;;;;3.07;76.22;100784.09;102686;1266;107090;-67
2023/04/08 04:15:03;;;;;;;24.30;16.50;;;;;;;3.07;76.29;100786.84;102707;1264;138812;-68
2023/04/08 04:17:30;;;;;;;21.60;15.80;;;;;;;3.09;76.45;100789.08;103137;1263;107177;-68
2023/04/08 04:19:57;;;;;;;23.90;16.50;;;;;;;3.11;76.36;100790.46;102780;1264;98049;-70
2023/04/08 04:22:43;;;;;;;;;;;;;;;3.14;76.51;100790.99;102710;1264;138409;-69
2023/04/08 04:25:13;;;;;;;21.50;14.80;;;;;;;3.43;76.65;100794.63;102748;1264;107826;-68
2023/04/08 04:27:45;;;;;;;20.50;14.90;;;;;;;3.89;76.32;100792.25;102683;1267;138845;-68
2023/04/08 04:30:30;;;;;;;;;;;;;;;4.47;76.13;100798.60;102775;1267;108801;-68
2023/04/08 04:33:07;;;;;;;19.70;13.40;;;;;;;5.05;75.32;100803.45;102730;1267;125125;-68
2023/04/08 04:35:44;;;;;;;18.50;13.70;;;;;;;5.77;74.54;100801.56;102846;1266;110849;-69
2023/04/08 04:38:32;;;;;;;18.40;13.70;;;;;;;6.71;73.33;100801.41;103277;1257;107343;-69
2023/04/08 04:41:01;;;;;;;16.70;13.10;;;;;;;7.65;72.29;100803.28;103307;1256;98339;-69
2023/04/08 04:43:28;;;;;;;16.40;12.30;;;;;;;8.64;70.79;100806.33;103229;1258;108954;-69
2023/04/08 04:45:56;;;;;;;16.90;12.30;;;;;;;9.65;69.21;100804.90;103109;1260;138131;-69
2023/04/08 04:48:33;;;;;;;17.40;12.20;;;;;;;10.71;67.17;100802.30;103238;1260;111364;-69
2023/04/08 04:51:02;;;;;;;13.50;11.20;;;;;;;11.60;65.17;100800.55;103185;1260;138326;-70
2023/04/08 04:53:29;;;;;;;16.70;10.90;;;;;;;12.41;63.24;100804.30;103436;1257;98280;-70
2023/04/08 04:55:57;;;;;;;14.30;11.10;;;;;;;13.19;61.58;100803.19;103290;1257;108898;-70
2023/04/08 04:58:24;;;;;;;12.40;10.40;;;;;;;13.98;60.01;100800.00;103318;1260;139158;-70
2023/04/08 05:00:51;;;;;;;13.10;10.40;;;;;;;14.75;58.50;100794.59;103279;1254;113133;-69
2023/04/08 05:03:18;;;;;;;12.90;10.60;;;;;;;15.53;57.20;100793.56;103391;1260;138186;-69
2023/04/08 05:05:45;;;;;;;12.30;9.90;;;;;;;16.32;55.60;100798.23;103315;1258;100956;-69
2023/04/08 05:08:12;;;;;;;13.90;10.10;;;;;;;17.09;54.34;100802.37;103233;1257;108316;-68
2023/04/08 05:10:42;;;;;;;12.50;9.20;;;;;;;17.86;52.93;100793.31;103163;1259;138124;-69
2023/04/08 05:13:09;;;;;;;10.80;9.70;;;;;;;18.62;51.46;100793.02;103270;1257;111944;-69
2023/04/08 05:15:36;;;;;;;10.20;9.20;;;;;;;19.34;49.78;100790.23;103128;1254;138614;-69
2023/04/08 05:18:03;;;;;;;12.50;9.50;;;;;;;19.97;48.79;100787.95;103245;1261;97821;-69
2023/04/08 05:20:31;;;;;;;10.20;9.00;;;;;;;20.79;47.75;100789.75;103325;1258;107826;-69
2023/04/08 05:22:58;;;;;;;10.30;9.20;;;;;;;21.49;46.15;100789.05;103310;1260;97811;-69
2023/04/08 05:25:25;;;;;;;9.70;8.70;;;;;;;22.15;44.99;100789.96;103311;1256;111863;-70
2023/04/08 05:27:52;;;;;;;9.60;8.40;;;;;;;22.68;43.68;100792.96;103172;1260;137918;-70
2023/04/08 05:30:20;;;;;;;9.00;8.10;;;;;;;23.17;42.54;100795.33;104581;1254;97873;-70
2023/04/08 05:32:46;;;;;;;9.60;8.60;;;;;;;23.71;41.44;100793.64;104475;1256;137890;-70
2023/04/08 05:35:13;;;;;;;9.70;8.30;;;;;;;24.14;40.33;100794.69;104577;1255;96492;-71
2023/04/08 05:37:40;;;;;;;8.90;8.00;;;;;;;24.63;39.45;100791.62;104569;1256;111230;-69
2023/04/08 05:40:09;;;;;;;8.50;7.70;;;;;;;25.20;38.83;100791.63;104428;1255;137723;-70
2023/04/08 05:42:36;;;;;;;8.70;7.80;;;;;;;25.78;37.70;100788.42;104606;1256;96074;-70
2023/04/08 05:45:03;;;;;;;9.20;7.80;;;;;;;26.26;36.71;100788.48;104369;1255;138187;-70
2023/04/08 05:47:31;;;;;;;8.20;7.20;;;;;;;26.67;35.85;100788.04;103287;1256;97816;-70
2023/04/08 05:49:58;;;;;;;7.20;6.50;;;;;;;26.97;34.69;100792.41;103308;1257;111047;-70
2023/04/08 05:52:25;;;;;;;7.50;6.80;;;;;;;27.46;34.19;100791.25;104423;1254;138187;-70
2023/04/08 05:54:52;;;;;;;7.70;6.90;;;;;;;27.85;33.60;100792.30;104611;1255;95895;-71
2023/04/08 05:57:20;;;;;;;7.70;7.00;;;;;;;28.23;32.78;100794.00;103650;1255;138480;-70
2023/04/08 05:59:47;;;;;;;7.60;6.90;;;;;;;28.76;32.16;100800.92;103235;1254;97809;-71
2023/04/08 06:02:14;;;;;;;10.00;7.80;;;;;;;29.23;30.99;100802.25;103296;1260;111737;-71
2023/04/08 06:04:41;;;;;;;7.50;6.80;;;;;;;29.48;30.78;100807.77;103178;1257;138121;-70
2023/04/08 06:07:09;;;;;;;7.90;6.20;;;;;;;29.64;30.07;100805.41;103279;1256;97797;-71
2023/04/08 06:09:37;;;;;;;7.50;6.80;;;;;;;29.97;29.71;100806.07;103214;1256;137583;-70
2023/04/08 06:12:05;;;;;;;7.00;6.30;;;;;;;30.26;28.06;100805.23;103332;1258;98009;-71
2023/04/08 06:14:32;;;;;;;7.10;6.40;;;;;;;30.32;27.08;100806.30;103903;1255;110639;-70
2023/04/08 06:16:59;;;;;;;7.70;6.90;;;;;;;30.34;27.42;100806.59;103161;1256;137546;-70
2023/04/08 06:19:26;;;;;;;7.30;6.40;;;;;;;30.57;27.27;100808.14;103315;1256;97801;-70
2023/04/08 06:21:57;;;;;;;8.60;7.80;;;;;;;30.74;27.11;100805.57;103179;1256;137719;-70
2023/04/08 06:24:25;;;;;;;7.80;7.00;;;;;;;30.84;26.11;100807.30;103235;1259;98281;-70
2023/04/08 06:26:53;;;;;;;7.60;6.90;;;;;;;30.93;26.29;100808.32;103696;1255;233795;-70
2023/04/08 06:29:20;;;;;;;7.10;6.50;;;;;;;31.01;25.26;100808.58;104225;1255;107416;-70
2023/04/08 06:31:47;;;;;;;9.30;6.40;;;;;;;30.92;24.20;100809.70;103257;1254;97804;-70
2023/04/08 06:34:14;;;;;;;6.90;6.30;;;;;;;30.59;24.27;100813.51;103615;1258;138248;-70
2023/04/08 06:36:41;;;;;;;7.30;6.60;;;;;;;30.30;24.19;100809.27;103231;1256;97813;-70
2023/04/08 06:39:08;;;;;;;6.90;6.30;;;;;;;30.06;23.95;100816.02;103205;1256;137860;-69
2023/04/08 06:41:36;;;;;;;7.90;6.50;;;;;;;29.69;23.36;100820.09;103218;1260;109250;-70
2023/04/08 06:44:12;;;;;;;7.20;6.60;;;;;;;29.37;23.53;100827.45;103140;1256;97870;-71
2023/04/08 06:46:40;;;;;;;7.60;6.80;;;;;;;29.19;23.48;100828.23;103158;1256;137785;-70
2023/04/08 06:49:07;;;;;;;7.60;6.90;;;;;;;29.17;24.05;100830.14;103275;1256;97815;-69
2023/04/08 06:51:34;;;;;;;7.30;6.60;;;;;;;29.61;24.82;100829.52;103600;1256;137811;-71
2023/04/08 06:54:01;;;;;;;7.30;6.70;;;;;;;30.12;24.09;100825.70;103495;1257;108338;-69
2023/04/08 06:56:28;;;;;;;7.20;6.40;;;;;;;30.58;23.99;100823.60;103509;1256;97145;-71
2023/04/08 06:58:55;;;;;;;8.10;6.60;;;;;;;30.78;22.98;100826.17;103233;1256;137667;-71
2023/04/08 07:01:24;;;;;;;6.70;6.00;;;;;;;30.67;23.04;100826.17;103462;1255;97855;-70
2023/04/08 07:03:51;;;;;;;6.90;6.30;;;;;;;30.84;23.81;100831.44;104442;1256;139492;-71
2023/04/08 07:06:18;;;;;;;7.90;6.70;;;;;;;31.21;23.82;100828.64;103647;1257;108138;-71
2023/04/08 07:08:45;;;;;;;8.10;6.30;;;;;;;31.63;23.35;100830.77;103034;1257;138326;-70
2023/04/08 07:11:12;;;;;;;6.70;6.00;;;;;;;31.82;22.44;100831.70;102998;1256;108734;-70
2023/04/08 07:13:39;;;;;;;7.30;5.40;;;;;;;31.94;22.49;100836.52;103206;1256;97792;-70
2023/04/08 07:16:07;;;;;;;8.00;6.10;;;;;;;32.11;22.78;100834.69;103118;1254;138376;-70
2023/04/08 07:18:34;;;;;;;7.60;5.90;;;;;;;32.42;22.93;100834.06;104610;1256;100243;-71
2023/04/08 07:21:01;;;;;;;6.70;6.10;;;;;;;32.72;22.62;100831.27;103475;1259;138620;-71
2023/04/08 07:23:28;;;;;;;6.60;5.50;;;;;;;32.88;22.07;100834.33;103238;1260;100220;-71
2023/04/08 07:25:55;;;;;;;9.00;5.80;;;;;;;33.07;22.00;100837.58;103307;1256;97775;-71
2023/04/08 07:28:22;;;;;;;8.20;6.20;;;;;;;33.43;22.23;100834.00;103036;1259;137616;-72
2023/04/08 07:30:49;;;;;;;7.10;6.40;;;;;;;33.90;22.32;100833.23;102992;1254;99791;-71
2023/04/08 07:33:16;;;;;;;7.10;6.30;;;;;;;34.36;22.14;100833.18;103057;1255;138179;-70
2023/04/08 07:35:43;;;;;;;5.90;5.30;;;;;;;34.64;21.80;100835.11;103326;1256;100050;-72
2023/04/08 07:38:12;;;;;;;5.80;5.30;;;;;;;34.85;21.31;100836.39;103335;1260;97820;-72
2023/04/08 07:40:39;;;;;;;5.60;5.10;;;;;;;35.07;20.94;100839.20;103479;1256;137697;-72
2023/04/08 07:43:07;;;;;;;5.30;4.80;;;;;;;35.27;20.86;100839.27;103242;1260;100114;-72
2023/04/08 07:45:35;;;;;;;5.80;5.30;;;;;;;35.34;20.53;100837.64;103202;1256;137944;-70
2023/04/08 07:48:02;;;;;;;5.20;4.70;;;;;;;35.41;20.19;100831.70;103261;1259;99480;-68
2023/04/08 07:50:29;;;;;;;6.60;5.50;;;;;;;35.27;20.51;100836.32;103208;1256;97692;-68
2023/04/08 07:52:56;;;;;;;8.10;5.40;;;;;;;35.16;20.62;100839.59;103052;1260;137574;-68
2023/04/08 07:55:22;;;;;;;5.90;5.40;;;;;;;35.08;20.19;100842.50;103066;1256;100213;-67
2023/04/08 07:57:50;;;;;;;6.60;6.00;;;;;;;34.99;19.55;100840.45;102968;1259;137807;-67
2023/04/08 08:00:20;;;;;;;6.40;5.10;;;;;;;34.70;19.35;100845.75;103143;1260;100943;-66
2023/04/08 08:02:47;;;;;;;6.70;5.40;;;;;;;34.34;20.01;100847.36;103398;1259;137964;-65
2023/04/08 08:05:15;;;;;;;6.60;5.60;;;;;;;34.15;19.86;100845.53;103653;1260;104207;-68
2023/04/08 08:07:42;;;;;;;6.10;5.60;;;;;;;33.90;19.28;100846.38;103407;1256;100187;-69
2023/04/08 08:10:11;;;;;;;6.50;5.90;;;;;;;33.58;19.35;100846.51;103054;1256;138658;-70
2023/04/08 08:12:38;;;;;;;6.70;5.80;;;;;;;33.53;19.85;100845.13;104534;1256;99393;-71
2023/04/08 08:15:06;;;;;;;6.30;5.70;;;;;;;33.55;19.90;100843.77;104472;1255;140418;-70
2023/04/08 08:17:33;;;;;;;6.80;6.10;;;;;;;33.52;19.56;100843.59;104611;1255;103903;-71
2023/04/08 08:20:00;;;;;;;6.60;5.90;;;;;;;33.47;19.62;100847.23;103484;1256;99955;-70
2023/04/08 08:22:27;;;;;;;6.50;5.90;;;;;;;33.36;19.58;100848.03;103029;1256;138301;-69
2023/04/08 08:24:58;;;;;;;6.70;6.00;;;;;;;33.31;19.97;100845.32;103126;1255;100433;-71
2023/04/08 08:27:25;;;;;;;6.20;5.70;;;;;;;33.31;20.10;100845.90;103102;1259;138082;-69
2023/04/08 08:29:52;;;;;;;6.30;5.70;;;;;;;33.33;20.11;100845.34;103154;1256;102292;-65
2023/04/08 08:32:19;;;;;;;6.60;5.80;;;;;;;33.29;20.50;100839.45;102903;1256;393828;-64
2023/04/08 08:34:46;;;;;;;6.90;6.20;;;;;;;33.31;20.87;100838.20;103142;1256;137947;-64
2023/04/08 08:37:13;;;;;;;7.70;5.90;;;;;;;33.45;20.81;100841.70;103235;1256;100961;-64
2023/04/08 08:39:40;;;;;;;6.20;5.60;;;;;;;33.67;20.86;100841.66;103198;1256;137806;-65
2023/04/08 08:42:07;;;;;;;6.70;5.90;;;;;;;33.71;20.51;100842.76;103285;1256;103327;-63
2023/04/08 08:44:34;;;;;;;6.50;5.80;;;;;;;33.63;20.40;100841.56;103223;1256;99586;-65
2023/04/08 08:47:02;;;;;;;5.80;5.30;;;;;;;33.59;20.94;100841.63;103223;1256;97904;-66
2023/04/08 08:49:30;;;;;;;5.80;5.30;;;;;;;33.75;20.76;100837.80;103056;1256;100264;-63
2023/04/08 08:51:58;;;;;;;7.70;6.10;;;;;;;33.66;20.51;100837.94;103007;1256;138190;-63
2023/04/08 08:54:26;;;;;;;7.00;6.40;;;;;;;33.44;20.47;100840.89;103156;1255;103213;-64
2023/04/08 08:56:53;;;;;;;6.60;6.00;;;;;;;33.33;20.88;100838.15;103022;1259;138095;-66
2023/04/08 08:59:20;;;;;;;7.20;6.40;;;;;;;33.44;20.26;100840.59;103635;1256;97786;-67
2023/04/08 09:01:47;;;;;;;6.90;6.20;;;;;;;33.20;20.07;100834.14;103161;1256;99625;-65
2023/04/08 09:04:18;;;;;;;6.50;5.90;;;;;;;32.88;20.70;100834.15;103095;1260;137604;-64
2023/04/08 09:06:48;;;;;;;124.90;10.00;;;;;;;32.89;20.74;100837.72;103618;1260;103658;-66
2023/04/08 09:09:16;;;;;;;37.30;7.00;;;;;;;32.80;20.68;100837.66;103076;1256;138637;-65
2023/04/08 09:11:45;;;;;;;11.00;6.10;;;;;;;32.87;21.28;100840.36;103140;1256;97697;-67
2023/04/08 09:14:23;;;;;;;6.70;6.00;;;;;;;33.12;21.18;100844.27;103114;1256;100392;-69
2023/04/08 09:16:50;;;;;;;6.50;5.80;;;;;;;33.35;21.28;100843.64;102889;1257;138210;-69
2023/04/08 09:19:18;;;;;;;6.60;5.60;;;;;;;33.37;21.13;100846.50;103092;1258;103752;-72
2023/04/08 09:21:46;;;;;;;7.30;6.00;;;;;;;33.23;20.65;100845.92;103068;1256;137969;-72
2023/04/08 09:24:29;;;;;;;7.80;6.10;;;;;;;33.30;20.85;100844.98;103137;1260;97685;-68
2023/04/08 09:26:56;;;;;;;7.80;6.10;;;;;;;33.44;20.64;100847.50;103315;1254;138013;-69
2023/04/08 09:29:26;;;;;;;6.50;5.90;;;;;;;33.35;20.62;100852.88;103475;1258;97874;-71
2023/04/08 09:32:00;;;;;;;7.70;6.10;;;;;;;33.02;20.51;100851.84;103546;1255;102622;-70
2023/04/08 09:34:31;;;;;;;6.50;5.90;;;;;;;32.83;20.65;100851.80;103588;1255;137798;-71
2023/04/08 09:36:58;;;;;;;9.00;6.10;;;;;;;32.80;20.83;100851.48;103244;1258;97809;-68
2023/04/08 09:39:25;;;;;;;7.20;6.50;;;;;;;32.90;20.51;100853.27;103365;1256;137729;-70
2023/04/08 09:41:54;;;;;;;6.80;6.00;;;;;;;32.81;20.35;100850.05;103146;1260;97765;-69
2023/04/08 09:44:25;;;;;;;6.90;6.30;;;;;;;32.70;19.96;100848.05;103177;1254;102219;-69
2023/04/08 09:47:01;;;;;;;6.90;6.20;;;;;;;32.37;19.93;100849.84;103084;1259;137682;-69
2023/04/08 09:49:28;;;;;;;;;;;;;;;31.88;19.99;100852.77;103151;1260;97819;-76
2023/04/08 09:51:59;;;;;;;7.60;6.70;;;;;;;31.36;19.70;100850.13;103111;1256;124080;-72
2023/04/08 09:54:35;;;;;;;7.50;6.70;;;;;;;30.76;19.66;100851.10;103073;1256;97880;-69
2023/04/08 09:57:06;;;;;;;7.50;6.80;;;;;;;30.14;19.62;100848.71;103019;1256;139245;-69
2023/04/08 09:59:37;;;;;;;10.40;6.70;;;;;;;29.55;20.07;100851.50;103193;1256;108396;-69
2023/04/08 10:02:10;;;;;;;8.80;6.60;;;;;;;29.05;20.77;100849.58;103043;1255;97796;-71
2023/04/08 10:04:41;;;;;;;7.20;6.50;;;;;;;28.88;21.80;100844.64;103571;1258;137933;-71
2023/04/08 10:07:10;;;;;;;7.10;6.50;;;;;;;28.83;20.98;100843.92;102981;1255;97781;-73
2023/04/08 10:09:40;;;;;;;7.30;6.60;;;;;;;28.42;21.37;100839.86;103006;1259;137931;-69
2023/04/08 10:12:09;;;;;;;6.40;5.70;;;;;;;28.23;22.33;100844.35;103101;1256;107965;-68
2023/04/08 10:14:36;;;;;;;8.50;5.80;;;;;;;28.32;22.59;100841.98;103442;1255;97770;-67
2023/04/08 10:17:26;;;;;;;8.00;6.00;;;;;;;28.53;22.87;100838.79;103135;1258;107620;-62
2023/04/08 10:19:53;;;;;;;8.90;5.30;;;;;;;28.79;23.09;100838.70;103440;1260;97783;-65
2023/04/08 10:22:50;;;;;;;6.30;5.50;;;;;;;29.02;23.05;100838.27;103129;1256;137861;-70
2023/04/08 10:25:34;;;;;;;9.00;6.00;;;;;;;29.36;22.85;100832.08;103045;1256;107320;-69
2023/04/08 10:28:22;;;;;;;10.30;6.30;;;;;;;29.64;22.50;100831.62;103982;1256;138675;-68
2023/04/08 10:30:50;;;;;;;8.20;6.60;;;;;;;29.71;22.16;100834.09;103366;1256;107311;-68
2023/04/08 10:33:21;;;;;;;6.70;6.00;;;;;;;29.54;21.94;100836.00;103108;1260;137996;-68
2023/04/08 10:35:53;;;;;;;8.00;6.60;;;;;;;29.30;22.08;100834.98;103765;1256;111859;-67
2023/04/08 10:38:21;;;;;;;6.70;6.10;;;;;;;29.18;22.32;100829.61;103255;1256;108705;-68
2023/04/08 10:40:50;;;;;;;6.60;5.90;;;;;;;29.14;22.51;100828.42;103391;1256;138120;-63
2023/04/08 10:43:17;;;;;;;6.90;6.00;;;;;;;29.24;22.86;100824.72;103139;1256;108915;-64
2023/04/08 10:45:49;;;;;;;8.60;5.90;;;;;;;29.35;22.84;100825.35;102959;1256;137973;-67
2023/04/08 10:48:19;;;;;;;7.00;6.30;;;;;;;29.21;22.70;100823.73;103220;1255;112214;-67
2023/04/08 10:50:54;;;;;;;6.60;5.90;;;;;;;29.06;22.97;100822.59;103574;1256;138086;-71
2023/04/08 10:53:26;;;;;;;6.20;5.60;;;;;;;29.00;23.22;100821.46;103092;1256;97702;-70
2023/04/08 10:55:53;;;;;;;7.20;6.20;;;;;;;28.84;22.89;100819.23;103616;1256;107322;-65
2023/04/08 10:58:21;;;;;;;6.10;5.50;;;;;;;28.66;23.16;100815.84;102972;1254;138485;-68
2023/04/08 11:00:48;;;;;;;6.30;5.40;;;;;;;28.40;23.06;100816.14;103261;1258;112534;-69
2023/04/08 11:03:15;;;;;;;6.60;5.90;;;;;;;28.19;23.50;100818.16;103181;1256;138096;-67
2023/04/08 11:05:43;;;;;;;6.00;5.40;;;;;;;28.05;23.27;100815.41;103754;1255;96573;-67
2023/04/08 11:08:10;;;;;;;5.50;4.90;;;;;;;27.89;23.65;100810.13;103091;1260;108242;-72
2023/04/08 11:10:40;;;;;;;6.90;5.20;;;;;;;27.77;23.33;100811.17;103042;1256;138962;-74
2023/04/08 11:13:09;;;;;;;6.60;5.70;;;;;;;27.62;23.32;100808.77;103042;1258;111201;-71
2023/04/08 11:15:37;;;;;;;5.90;5.30;;;;;;;27.40;23.01;100808.90;102844;1260;137923;-72
2023/04/08 11:18:06;;;;;;;6.00;5.40;;;;;;;27.01;23.19;100808.64;103049;1256;97817;-73
2023/04/08 11:20:36;;;;;;;6.70;5.40;;;;;;;26.69;23.79;100814.91;103803;1260;107845;-71
2023/04/08 11:23:03;;;;;;;6.80;5.20;;;;;;;26.55;24.04;100811.23;103288;1256;97794;-73